Time;durP1;ratioP1;P1;durP2;ratioP2;P2;SDS_P1;SDS_P2;PMS_P1;PMS_P2;Temp;Humidity;BMP_temperature;BMP_pressure;BME280_temperature;BME280_humidity;BME280_pressure;Samples;Min_cycle;Max_cycle;Signal;HPM_P1;HPM_P2
2022/01/25 00:09:21;;;;;;;29.13;10.67;;;1.70;56.00;;;;;;5102993;28;20208;-73
2022/01/25 00:25:59;;;;;;;25.47;11.10;;;1.80;55.50;;;;;;5095553;28;20550;-73
2022/01/25 00:28:43;;;;;;;23.83;11.13;;;1.80;55.40;;;;;;5101964;28;20219;-72
2022/01/25 00:31:13;;;;;;;24.63;11.40;;;1.80;55.40;;;;;;5097180;28;20203;-72
2022/01/25 00:33:43;;;;;;;24.03;11.30;;;1.80;55.30;;;;;;5103878;28;20183;-72
2022/01/25 00:36:15;;;;;;;28.93;12.27;;;1.90;55.30;;;;;;5104231;28;20230;-72
2022/01/25 00:38:44;;;;;;;24.93;11.60;;;1.80;55.10;;;;;;5104319;28;20185;-72
2022/01/25 00:41:15;;;;;;;29.43;12.20;;;1.90;55.10;;;;;;5098760;28;20192;-72
2022/01/25 00:43:43;;;;;;;24.00;11.57;;;1.80;55.10;;;;;;5105380;28;20180;-72
2022/01/25 00:46:13;;;;;;;29.83;12.70;;;1.80;54.90;;;;;;5103746;28;20199;-72
2022/01/25 00:48:45;;;;;;;24.07;11.20;;;1.80;54.90;;;;;;5097788;28;20219;-73
2022/01/25 00:51:46;;;;;;;24.87;11.87;;;1.90;55.10;;;;;;5095434;28;20192;-74
2022/01/25 00:54:16;;;;;;;25.17;12.10;;;1.90;55.20;;;;;;5094402;28;20189;-72
2022/01/25 00:56:49;;;;;;;25.23;11.97;;;1.90;55.20;;;;;;5094340;28;20553;-73
2022/01/25 00:59:19;;;;;;;29.77;12.23;;;1.90;55.10;;;;;;5095580;27;20553;-74
2022/01/25 01:01:49;;;;;;;28.50;12.33;;;1.90;55.20;;;;;;5093949;28;20203;-73
2022/01/25 01:04:18;;;;;;;26.40;11.70;;;1.90;55.20;;;;;;5094891;28;20560;-72
2022/01/25 01:06:47;;;;;;;28.87;12.37;;;1.90;55.20;;;;;;5096073;28;20204;-73
2022/01/25 01:09:17;;;;;;;29.37;12.13;;;2.00;55.30;;;;;;5095029;28;20264;-73
2022/01/25 01:11:53;;;;;;;30.80;13.13;;;1.90;55.20;;;;;;5095682;28;20879;-72
2022/01/25 01:14:31;;;;;;;30.00;15.40;;;1.90;55.10;;;;;;5093929;28;20440;-74
2022/01/25 01:17:31;;;;;;;28.93;12.50;;;1.90;55.20;;;;;;5095785;28;20188;-73
2022/01/25 01:29:03;;;;;;;27.50;13.23;;;1.90;55.20;;;;;;5094083;28;20269;-73
2022/01/25 01:31:23;;;;;;;33.67;14.03;;;1.80;55.00;;;;;;5100536;28;20195;-73
2022/01/25 01:42:16;;;;;;;32.73;14.70;;;1.80;54.80;;;;;;5092712;28;20189;-73
2022/01/25 01:45:08;;;;;;;27.40;14.30;;;1.70;54.80;;;;;;5095571;28;20220;-73
2022/01/25 01:47:46;;;;;;;25.20;12.48;;;1.70;54.80;;;;;;5096132;28;20845;-73
2022/01/25 01:50:27;;;;;;;31.60;13.53;;;1.70;55.00;;;;;;5094343;27;20723;-73
2022/01/25 01:52:56;;;;;;;30.10;13.33;;;1.70;55.00;;;;;;5095057;28;20183;-75
2022/01/25 01:55:27;;;;;;;27.20;12.93;;;1.70;55.20;;;;;;5096029;28;20293;-73
2022/01/25 01:57:57;;;;;;;25.07;11.77;;;1.80;55.20;;;;;;5094116;28;20253;-74
2022/01/25 02:00:31;;;;;;;25.57;11.83;;;1.80;55.30;;;;;;5093583;28;20189;-73
2022/01/25 02:03:00;;;;;;;26.93;11.90;;;1.80;55.20;;;;;;5094828;28;20183;-73
2022/01/25 02:05:30;;;;;;;25.97;11.97;;;1.80;55.00;;;;;;5093775;27;20552;-73
2022/01/25 02:07:58;;;;;;;25.40;11.87;;;1.80;55.20;;;;;;5092663;28;20203;-73
2022/01/25 02:10:27;;;;;;;23.00;11.37;;;1.80;55.30;;;;;;5092240;27;20220;-72
2022/01/25 02:12:57;;;;;;;26.38;12.23;;;1.80;54.70;;;;;;5091871;27;20097;-73
2022/01/25 02:15:27;;;;;;;29.00;13.13;;;1.80;55.90;;;;;;5096311;28;20838;-72
2022/01/25 02:23:30;;;;;;;31.43;12.20;;;1.80;55.30;;;;;;5095970;28;20200;-72
2022/01/25 02:26:00;;;;;;;19.90;10.33;;;1.90;55.30;;;;;;5093533;28;20211;-73
2022/01/25 02:28:30;;;;;;;29.23;12.23;;;1.90;55.30;;;;;;5092718;28;20196;-73
2022/01/25 02:30:59;;;;;;;24.37;12.37;;;1.90;55.30;;;;;;5092420;28;20259;-73
2022/01/25 02:33:29;;;;;;;26.47;11.57;;;1.90;55.30;;;;;;5094347;28;20661;-72
2022/01/25 02:36:00;;;;;;;27.33;12.37;;;1.90;55.20;;;;;;5092548;28;20839;-72
2022/01/25 02:38:30;;;;;;;23.73;11.23;;;1.90;55.30;;;;;;5092801;28;20192;-72
2022/01/25 02:40:59;;;;;;;22.67;10.60;;;1.90;55.30;;;;;;5092201;28;20194;-73
2022/01/25 02:43:29;;;;;;;26.07;11.50;;;2.00;55.40;;;;;;5096425;28;20193;-72
2022/01/25 02:46:20;;;;;;;24.70;11.80;;;2.00;55.50;;;;;;5097379;27;20199;-72
2022/01/25 02:48:52;;;;;;;25.00;11.73;;;2.00;55.60;;;;;;5094073;28;20195;-73
2022/01/25 02:51:24;;;;;;;23.43;12.07;;;2.00;55.40;;;;;;5090094;28;20266;-73
2022/01/25 02:53:52;;;;;;;23.77;11.70;;;2.10;55.40;;;;;;5092208;28;20253;-72
2022/01/25 02:56:21;;;;;;;25.53;11.27;;;2.10;55.30;;;;;;5093158;28;20207;-72
2022/01/25 02:58:51;;;;;;;23.20;11.67;;;2.10;55.10;;;;;;5095400;28;20197;-72
2022/01/25 03:01:20;;;;;;;24.17;11.97;;;2.10;55.00;;;;;;5092966;28;21201;-73
2022/01/25 03:03:50;;;;;;;26.97;12.23;;;2.10;54.90;;;;;;5092609;28;20278;-72
2022/01/25 03:06:22;;;;;;;26.60;11.63;;;2.10;54.90;;;;;;5092498;28;20271;-72
2022/01/25 03:08:51;;;;;;;24.07;11.77;;;2.10;54.80;;;;;;5092624;27;20270;-72
2022/01/25 03:11:22;;;;;;;25.93;12.60;;;2.10;54.80;;;;;;5091169;28;20223;-74
2022/01/25 03:13:52;;;;;;;29.37;12.83;;;2.10;54.80;;;;;;5093688;28;20188;-73
2022/01/25 03:16:29;;;;;;;26.67;11.83;;;2.10;54.80;;;;;;5092134;28;20196;-73
2022/01/25 03:19:01;;;;;;;24.83;12.17;;;2.10;54.90;;;;;;5093159;28;20665;-73
2022/01/25 03:21:39;;;;;;;24.10;12.53;;;2.10;54.90;;;;;;5091342;28;20193;-75
2022/01/25 03:24:08;;;;;;;24.83;12.30;;;2.10;54.90;;;;;;5091567;28;20189;-74
2022/01/25 03:26:36;;;;;;;30.93;13.50;;;2.10;54.90;;;;;;5091858;28;20197;-72
2022/01/25 03:29:05;;;;;;;25.63;13.33;;;2.10;54.80;;;;;;5092059;28;20249;-72
2022/01/25 03:31:34;;;;;;;23.17;11.27;;;2.00;54.80;;;;;;5092594;28;20231;-73
2022/01/25 03:34:03;;;;;;;24.43;12.07;;;2.00;54.70;;;;;;5095283;28;20201;-72
2022/01/25 03:36:33;;;;;;;26.73;12.47;;;2.00;54.80;;;;;;5098709;28;20216;-74
2022/01/25 03:39:01;;;;;;;29.63;13.00;;;2.00;54.90;;;;;;5090564;28;20190;-72
2022/01/25 03:41:33;;;;;;;26.43;12.63;;;2.00;54.90;;;;;;5092255;28;20191;-72
2022/01/25 03:44:02;;;;;;;28.60;12.47;;;2.00;54.90;;;;;;5091905;28;20236;-72
2022/01/25 03:46:37;;;;;;;32.80;13.50;;;2.00;55.00;;;;;;5093074;28;20227;-72
2022/01/25 03:51:53;;;;;;;28.37;12.80;;;2.00;55.10;;;;;;5094100;28;20222;-73
2022/01/25 03:54:22;;;;;;;28.30;11.97;;;2.00;55.00;;;;;;5093196;28;20774;-72
2022/01/25 03:56:50;;;;;;;28.03;12.97;;;2.00;55.10;;;;;;5092625;28;20213;-74
2022/01/25 03:59:18;;;;;;;26.47;11.37;;;2.00;55.10;;;;;;5092821;28;20192;-73
2022/01/25 04:01:47;;;;;;;25.07;12.73;;;2.00;55.20;;;;;;5092886;28;20200;-72
2022/01/25 04:04:19;;;;;;;23.90;11.57;;;2.00;55.30;;;;;;5092074;28;20280;-73
2022/01/25 04:06:51;;;;;;;25.43;11.97;;;2.00;55.40;;;;;;5093037;28;20826;-72
2022/01/25 04:09:22;;;;;;;25.40;11.93;;;2.00;55.40;;;;;;5091594;28;20261;-74
2022/01/25 04:11:50;;;;;;;29.63;11.47;;;1.90;55.50;;;;;;5092905;28;20216;-72
2022/01/25 04:14:18;;;;;;;31.17;13.80;;;1.90;55.70;;;;;;5097255;28;20201;-72
2022/01/25 04:16:55;;;;;;;25.13;11.93;;;1.90;55.70;;;;;;5097143;28;20245;-74
2022/01/25 04:19:32;;;;;;;24.20;11.33;;;1.90;55.70;;;;;;5090527;28;20188;-72
2022/01/25 04:25:04;;;;;;;24.27;11.70;;;1.90;55.90;;;;;;5091479;28;20834;-72
2022/01/25 04:27:34;;;;;;;23.97;11.60;;;1.80;55.70;;;;;;5090717;28;20675;-72
2022/01/25 04:30:04;;;;;;;22.53;11.23;;;1.80;55.80;;;;;;5091805;28;20208;-73
2022/01/25 04:32:40;;;;;;;27.93;12.03;;;1.70;55.90;;;;;;5098353;28;20792;-72
2022/01/25 04:35:13;;;;;;;22.97;11.50;;;1.70;56.30;;;;;;5100446;28;20753;-72
2022/01/25 04:49:03;;;;;;;29.10;13.73;;;1.30;58.40;;;;;;5101635;28;20277;-73
2022/01/25 04:54:26;;;;;;;26.40;12.90;;;1.20;58.80;;;;;;5101466;28;20184;-73
2022/01/25 04:57:06;;;;;;;25.43;11.63;;;1.10;59.10;;;;;;5104181;28;20179;-73
2022/01/25 04:59:39;;;;;;;25.10;12.07;;;1.10;59.00;;;;;;5103550;28;20183;-73
2022/01/25 05:02:13;;;;;;;28.00;11.37;;;1.00;59.50;;;;;;5102384;28;20282;-73
2022/01/25 05:04:48;;;;;;;21.13;11.20;;;0.90;60.00;;;;;;5105236;28;20252;-73
2022/01/25 05:07:28;;;;;;;29.17;11.90;;;0.90;59.90;;;;;;5101643;28;20227;-73
2022/01/25 05:09:58;;;;;;;30.33;12.03;;;0.80;60.00;;;;;;5101716;28;20708;-74
2022/01/25 05:12:38;;;;;;;28.43;12.90;;;0.80;60.00;;;;;;5103179;28;20255;-73
2022/01/25 05:15:39;;;;;;;29.80;12.33;;;0.80;60.10;;;;;;5103633;28;20251;-73
2022/01/25 05:18:14;;;;;;;31.87;13.23;;;0.70;60.40;;;;;;5103930;28;20196;-73
2022/01/25 05:23:43;;;;;;;23.23;10.73;;;0.70;60.20;;;;;;5041362;28;20191;-73
2022/01/25 05:26:11;;;;;;;27.17;13.20;;;0.70;60.00;;;;;;5038754;28;20203;-75
2022/01/25 05:28:41;;;;;;;38.80;13.03;;;0.60;60.30;;;;;;5071343;28;20201;-73
2022/01/25 05:31:09;;;;;;;31.10;13.23;;;0.60;60.00;;;;;;5101984;28;20279;-73
2022/01/25 05:33:37;;;;;;;28.03;12.23;;;0.60;60.00;;;;;;5103391;28;20199;-73
2022/01/25 05:36:06;;;;;;;27.00;12.90;;;0.60;59.80;;;;;;5102176;28;20222;-72
2022/01/25 05:38:35;;;;;;;29.73;12.00;;;0.60;59.70;;;;;;5102542;28;20205;-73
2022/01/25 05:41:04;;;;;;;32.23;12.70;;;0.60;59.70;;;;;;5100164;28;20231;-73
2022/01/25 05:44:09;;;;;;;30.80;13.37;;;0.60;59.70;;;;;;5099109;28;20194;-73
2022/01/25 05:46:44;;;;;;;29.20;13.27;;;0.60;59.70;;;;;;5090672;28;20251;-72
2022/01/25 05:49:13;;;;;;;23.80;12.53;;;0.60;59.80;;;;;;5099722;28;20197;-73
2022/01/25 05:51:41;;;;;;;29.17;12.93;;;0.60;59.90;;;;;;5102835;28;20750;-73
2022/01/25 05:54:09;;;;;;;33.27;13.30;;;0.50;59.90;;;;;;5104725;28;20186;-72
2022/01/25 05:56:38;;;;;;;25.63;11.90;;;0.50;60.20;;;;;;5104147;28;20195;-73
2022/01/25 05:59:06;;;;;;;30.43;13.30;;;0.50;60.30;;;;;;5104483;28;20201;-73
2022/01/25 06:01:36;;;;;;;40.00;13.00;;;0.50;60.20;;;;;;5093151;28;20246;-73
2022/01/25 06:04:07;;;;;;;29.47;13.10;;;0.40;60.30;;;;;;5095590;28;20188;-73
2022/01/25 06:06:35;;;;;;;28.27;13.27;;;0.40;60.20;;;;;;5103930;28;20194;-74
2022/01/25 06:09:04;;;;;;;36.47;14.00;;;0.40;60.20;;;;;;5094427;28;20195;-73
2022/01/25 06:11:32;;;;;;;33.07;14.00;;;0.40;60.50;;;;;;5090445;28;20214;-73
2022/01/25 06:14:00;;;;;;;32.80;12.93;;;0.40;60.50;;;;;;5100936;28;20208;-74
2022/01/25 06:16:29;;;;;;;28.60;13.53;;;0.40;60.50;;;;;;5102398;28;20193;-74
2022/01/25 06:18:58;;;;;;;35.87;13.83;;;0.40;60.50;;;;;;5096460;28;20191;-73
2022/01/25 06:21:28;;;;;;;30.93;14.40;;;0.30;60.60;;;;;;5101794;28;20248;-73
2022/01/25 06:23:57;;;;;;;34.60;14.40;;;0.30;60.60;;;;;;5100238;28;20193;-73
2022/01/25 06:26:25;;;;;;;27.47;13.10;;;0.30;60.80;;;;;;5093350;28;20650;-73
2022/01/25 06:28:53;;;;;;;33.17;13.87;;;0.30;60.60;;;;;;5094885;28;20201;-73
2022/01/25 06:31:22;;;;;;;35.07;14.03;;;0.20;60.60;;;;;;5101957;28;20177;-73
2022/01/25 06:33:50;;;;;;;32.42;14.88;;;0.20;60.80;;;;;;5101259;28;20443;-74
2022/01/25 06:36:19;;;;;;;32.50;13.83;;;0.20;60.90;;;;;;5100700;28;20221;-75
2022/01/25 06:38:49;;;;;;;29.23;13.03;;;0.20;61.00;;;;;;5093828;28;20182;-72
2022/01/25 06:41:18;;;;;;;28.37;11.93;;;0.20;60.90;;;;;;5101726;28;20210;-74
2022/01/25 06:43:46;;;;;;;29.57;13.03;;;0.20;61.10;;;;;;5102008;28;20193;-73
2022/01/25 06:46:15;;;;;;;23.13;10.73;;;0.20;61.00;;;;;;5100863;28;20195;-73
2022/01/25 06:48:43;;;;;;;26.27;12.97;;;0.20;61.10;;;;;;5101881;28;20186;-73
2022/01/25 06:51:11;;;;;;;27.30;12.20;;;0.20;61.10;;;;;;5103617;28;20278;-73
2022/01/25 06:53:40;;;;;;;31.65;15.00;;;0.20;61.20;;;;;;5099318;28;20964;-73
2022/01/25 06:56:09;;;;;;;24.90;12.20;;;0.20;61.40;;;;;;5102466;28;20190;-74
2022/01/25 06:58:40;;;;;;;22.47;12.40;;;0.20;61.60;;;;;;5095836;28;20217;-74
2022/01/25 07:01:09;;;;;;;27.60;12.13;;;0.20;61.70;;;;;;5102967;28;20236;-73
2022/01/25 07:03:37;;;;;;;25.63;11.87;;;0.20;61.90;;;;;;5096113;28;20198;-74
2022/01/25 07:06:06;;;;;;;23.80;11.70;;;0.20;62.10;;;;;;5103074;28;20198;-74
2022/01/25 07:08:34;;;;;;;22.77;10.77;;;0.20;62.30;;;;;;5101585;28;20256;-74
2022/01/25 07:11:02;;;;;;;33.10;12.27;;;0.20;62.30;;;;;;5105007;28;20711;-73
2022/01/25 07:13:32;;;;;;;26.50;12.53;;;0.20;62.40;;;;;;5102887;28;20258;-74
2022/01/25 07:16:00;;;;;;;27.33;12.10;;;0.30;62.50;;;;;;5102888;28;20191;-73
2022/01/25 07:18:29;;;;;;;27.87;12.33;;;0.30;62.70;;;;;;5103747;28;20190;-73
2022/01/25 07:20:57;;;;;;;30.42;13.43;;;0.30;62.70;;;;;;5103873;28;20424;-74
2022/01/25 07:23:25;;;;;;;29.10;13.13;;;0.30;62.40;;;;;;5103609;28;20208;-74
2022/01/25 07:25:53;;;;;;;24.73;11.47;;;0.30;62.60;;;;;;5102448;28;20191;-74
2022/01/25 07:28:22;;;;;;;23.27;11.63;;;0.40;62.30;;;;;;5102219;28;20213;-75
2022/01/25 07:30:52;;;;;;;22.63;10.77;;;0.40;62.00;;;;;;5099823;28;20198;-74
2022/01/25 07:33:25;;;;;;;24.37;11.60;;;0.40;61.90;;;;;;5045878;28;20297;-74
2022/01/25 07:36:05;;;;;;;31.57;14.60;;;0.50;61.60;;;;;;5068248;28;20505;-75
2022/01/25 07:38:38;;;;;;;26.00;12.93;;;0.50;61.70;;;;;;5097089;28;20187;-74
2022/01/25 07:41:23;;;;;;;26.27;12.33;;;0.50;62.40;;;;;;5096904;28;20240;-73
2022/01/25 07:43:52;;;;;;;25.77;12.47;;;0.60;61.30;;;;;;5100320;28;20230;-73
2022/01/25 07:46:25;;;;;;;24.00;11.90;;;0.70;61.30;;;;;;5096984;28;20673;-74
2022/01/25 07:49:06;;;;;;;27.10;12.30;;;0.70;61.20;;;;;;5041310;28;20239;-73
2022/01/25 07:51:36;;;;;;;29.73;12.77;;;0.80;61.00;;;;;;5099281;28;20747;-74
2022/01/25 07:54:04;;;;;;;30.43;13.10;;;0.80;60.90;;;;;;5096435;28;20910;-73
2022/01/25 07:56:33;;;;;;;26.57;12.93;;;0.90;60.90;;;;;;5098610;28;20805;-74
2022/01/25 07:59:01;;;;;;;29.03;13.80;;;1.00;60.80;;;;;;5097693;28;20385;-75
2022/01/25 08:01:31;;;;;;;30.37;13.70;;;1.00;60.80;;;;;;5097023;28;20197;-72
2022/01/25 08:03:59;;;;;;;31.80;13.77;;;1.10;60.70;;;;;;5099399;28;20180;-74
2022/01/25 08:06:41;;;;;;;32.27;13.37;;;1.20;60.60;;;;;;5047489;28;20205;-74
2022/01/25 08:09:14;;;;;;;23.67;13.47;;;1.30;60.40;;;;;;5092359;28;20283;-74
2022/01/25 08:11:48;;;;;;;36.70;14.23;;;1.30;59.90;;;;;;5048333;28;20185;-74
2022/01/25 08:14:43;;;;;;;27.87;13.30;;;1.40;59.80;;;;;;5019642;28;20191;-73
2022/01/25 08:17:19;;;;;;;30.10;14.33;;;1.50;59.90;;;;;;5015318;28;20285;-74
2022/01/25 08:19:53;;;;;;;29.13;11.90;;;1.60;59.80;;;;;;5024336;28;20190;-74
2022/01/25 08:22:36;;;;;;;32.90;15.98;;;1.70;59.60;;;;;;5013631;28;20451;-75
2022/01/25 08:25:20;;;;;;;27.87;13.53;;;1.80;59.60;;;;;;5008283;28;20249;-75
2022/01/25 08:27:52;;;;;;;32.57;12.73;;;1.90;59.40;;;;;;4990262;28;20800;-74
2022/01/25 08:30:47;;;;;;;26.27;12.60;;;1.90;59.30;;;;;;5016762;28;20203;-74
2022/01/25 08:33:31;;;;;;;28.00;12.13;;;2.00;58.90;;;;;;5006651;28;20709;-74
2022/01/25 08:36:24;;;;;;;32.23;12.77;;;2.10;58.90;;;;;;4963963;28;20226;-74
2022/01/25 08:39:22;;;;;;;33.17;13.60;;;2.20;59.00;;;;;;4883243;29;20208;-75
2022/01/25 08:42:00;;;;;;;27.10;13.87;;;2.20;58.60;;;;;;4856713;29;20223;-74
2022/01/25 08:44:43;;;;;;;27.17;12.83;;;2.30;58.60;;;;;;4841305;29;20278;-72
2022/01/25 08:47:15;;;;;;;30.77;13.90;;;2.40;58.40;;;;;;4883131;29;20234;-75
2022/01/25 08:49:45;;;;;;;26.57;13.17;;;2.40;58.20;;;;;;4884599;29;20196;-74
2022/01/25 08:52:28;;;;;;;26.57;12.50;;;2.50;58.10;;;;;;4913318;29;20253;-73
2022/01/25 08:55:15;;;;;;;28.87;13.87;;;2.50;58.00;;;;;;4940256;28;20214;-72
2022/01/25 08:57:59;;;;;;;22.93;12.87;;;2.60;57.80;;;;;;4943535;29;20198;-73
2022/01/25 09:00:31;;;;;;;28.47;13.07;;;2.70;57.80;;;;;;4964524;28;20235;-76
2022/01/25 09:03:00;;;;;;;27.07;12.80;;;2.70;57.60;;;;;;5022418;28;20192;-75
2022/01/25 09:05:30;;;;;;;28.03;14.83;;;2.80;57.70;;;;;;5022676;28;20196;-74
2022/01/25 09:08:01;;;;;;;29.40;12.40;;;2.80;57.10;;;;;;5024132;28;20215;-72
2022/01/25 09:10:29;;;;;;;27.63;13.33;;;2.90;56.80;;;;;;5019090;28;20875;-74
2022/01/25 09:12:58;;;;;;;25.97;12.40;;;2.90;56.70;;;;;;5034958;28;20214;-75
2022/01/25 09:15:26;;;;;;;23.97;12.47;;;3.00;56.70;;;;;;5104446;28;20654;-76
2022/01/25 09:17:55;;;;;;;21.27;11.60;;;3.00;56.70;;;;;;5104691;28;20191;-75
2022/01/25 09:20:23;;;;;;;27.10;14.07;;;3.10;56.30;;;;;;5107085;28;20185;-77
2022/01/25 09:22:53;;;;;;;27.90;11.87;;;3.20;56.30;;;;;;5106732;28;20196;-76
2022/01/25 09:25:30;;;;;;;26.83;11.87;;;3.20;56.10;;;;;;5108689;28;20782;-78
2022/01/25 09:27:58;;;;;;;21.50;11.47;;;3.30;56.30;;;;;;5102746;28;20208;-79
2022/01/25 09:30:27;;;;;;;26.80;11.03;;;3.40;55.60;;;;;;5102735;28;20194;-79
2022/01/25 09:32:56;;;;;;;30.08;13.63;;;3.40;55.70;;;;;;5106611;28;20497;-79
2022/01/25 09:35:25;;;;;;;25.93;12.37;;;3.50;55.60;;;;;;5108602;28;20717;-78
2022/01/25 09:37:55;;;;;;;26.87;12.10;;;3.60;55.30;;;;;;5108773;28;20197;-79
2022/01/25 09:40:23;;;;;;;28.23;11.60;;;3.60;55.20;;;;;;5109323;28;20197;-79
2022/01/25 09:42:55;;;;;;;26.77;11.47;;;3.70;54.80;;;;;;5107023;28;20717;-78
2022/01/25 09:45:23;;;;;;;22.03;11.27;;;3.70;54.70;;;;;;5102693;28;20240;-80
2022/01/25 09:47:52;;;;;;;25.77;11.43;;;3.80;55.00;;;;;;5102369;28;20628;-75
2022/01/25 09:50:22;;;;;;;21.10;10.33;;;3.90;54.70;;;;;;5107299;28;20204;-78
2022/01/25 09:52:51;;;;;;;24.63;12.43;;;3.90;54.70;;;;;;5105961;28;20182;-79
2022/01/25 09:55:25;;;;;;;25.50;11.10;;;4.00;53.90;;;;;;5105145;28;20651;-78
2022/01/25 09:57:54;;;;;;;26.40;11.77;;;4.00;53.20;;;;;;5103838;28;20439;-78
2022/01/25 10:00:25;;;;;;;25.73;11.03;;;4.10;53.50;;;;;;5106383;28;20203;-79
2022/01/25 10:03:02;;;;;;;23.40;11.00;;;4.10;53.50;;;;;;5102190;28;20209;-79
2022/01/25 10:05:35;;;;;;;22.43;10.00;;;4.20;53.30;;;;;;5093168;28;20202;-79
2022/01/25 10:08:05;;;;;;;20.83;9.73;;;4.20;53.60;;;;;;5100554;28;20204;-78
2022/01/25 10:10:39;;;;;;;19.90;10.53;;;4.30;53.10;;;;;;5101477;28;20813;-79
2022/01/25 10:13:14;;;;;;;20.67;10.30;;;4.30;52.60;;;;;;5103440;28;20184;-79
2022/01/25 10:15:43;;;;;;;26.73;10.80;;;4.40;52.50;;;;;;5103099;28;20184;-79
2022/01/25 10:18:19;;;;;;;20.20;9.70;;;4.50;52.10;;;;;;5104459;28;20278;-78
2022/01/25 10:20:48;;;;;;;20.03;10.50;;;4.50;52.40;;;;;;5105221;28;20199;-78
2022/01/25 10:23:19;;;;;;;21.77;9.97;;;4.60;52.50;;;;;;5096746;28;20194;-78
2022/01/25 10:25:57;;;;;;;21.63;9.53;;;4.70;52.40;;;;;;5087300;28;20196;-77
2022/01/25 10:28:29;;;;;;;20.00;9.43;;;4.70;52.30;;;;;;5106507;28;20260;-78
2022/01/25 10:31:00;;;;;;;25.10;10.03;;;4.80;50.80;;;;;;5105575;28;20188;-79
2022/01/25 10:33:53;;;;;;;25.80;9.70;;;4.80;50.90;;;;;;5105762;28;20187;-75
2022/01/25 10:36:45;;;;;;;19.20;8.67;;;4.90;51.50;;;;;;5103578;28;20220;-78
2022/01/25 10:39:29;;;;;;;19.17;9.27;;;4.90;50.80;;;;;;5089339;28;20193;-76
2022/01/25 10:42:08;;;;;;;18.50;9.17;;;5.00;51.30;;;;;;5103121;28;20189;-76
2022/01/25 10:44:48;;;;;;;19.35;9.25;;;5.00;50.50;;;;;;5104911;28;20435;-77
2022/01/25 10:47:18;;;;;;;13.50;6.87;;;5.10;50.20;;;;;;5093615;28;20208;-77
2022/01/25 10:49:48;;;;;;;16.67;9.40;;;5.10;49.30;;;;;;5094559;28;20289;-75
2022/01/25 10:52:24;;;;;;;20.93;9.30;;;5.10;48.80;;;;;;5105535;28;20181;-75
2022/01/25 10:54:53;;;;;;;21.17;9.07;;;5.20;49.40;;;;;;5105028;28;20202;-75
2022/01/25 10:57:24;;;;;;;18.03;8.97;;;5.30;49.80;;;;;;5102425;28;20189;-75
2022/01/25 11:00:14;;;;;;;15.57;7.87;;;5.30;48.70;;;;;;5104004;28;20196;-75
2022/01/25 11:02:50;;;;;;;16.53;8.27;;;5.40;48.40;;;;;;5102172;28;20597;-76
2022/01/25 11:05:19;;;;;;;19.97;7.57;;;5.40;49.20;;;;;;5105129;28;20181;-75
2022/01/25 11:07:47;;;;;;;16.37;7.80;;;5.50;49.00;;;;;;5102692;28;20181;-76
2022/01/25 11:10:18;;;;;;;16.50;7.27;;;5.60;48.40;;;;;;5104369;28;20196;-77
2022/01/25 11:13:01;;;;;;;13.37;6.23;;;5.70;48.20;;;;;;5103172;28;20191;-78
2022/01/25 11:15:36;;;;;;;14.63;6.53;;;5.70;47.70;;;;;;5102156;28;20219;-77
2022/01/25 11:18:05;;;;;;;16.43;7.80;;;5.80;45.70;;;;;;5100079;28;20192;-78
2022/01/25 11:20:35;;;;;;;12.83;7.07;;;5.80;45.90;;;;;;5102724;28;20931;-78
2022/01/25 11:23:04;;;;;;;12.00;6.87;;;5.90;45.50;;;;;;5104930;28;20786;-79
2022/01/25 11:25:37;;;;;;;12.93;6.60;;;5.90;45.80;;;;;;5104453;28;20272;-78
2022/01/25 11:28:07;;;;;;;9.53;5.67;;;5.90;44.60;;;;;;5102495;28;20199;-77
2022/01/25 11:30:38;;;;;;;13.77;7.10;;;5.90;44.50;;;;;;5104068;28;20177;-77
2022/01/25 11:33:08;;;;;;;14.90;6.57;;;6.00;45.10;;;;;;5103313;28;20197;-77
2022/01/25 11:35:37;;;;;;;9.77;5.40;;;6.00;44.70;;;;;;5105060;28;20228;-77
2022/01/25 11:38:07;;;;;;;12.70;6.70;;;6.10;44.40;;;;;;5104437;28;20207;-77
2022/01/25 11:40:38;;;;;;;13.73;7.13;;;6.10;43.90;;;;;;5102856;28;20193;-77
2022/01/25 11:43:10;;;;;;;12.10;6.10;;;6.10;44.50;;;;;;5099088;28;20197;-78
2022/01/25 11:45:40;;;;;;;12.83;6.60;;;6.20;44.90;;;;;;5104502;28;20224;-78
2022/01/25 11:48:09;;;;;;;17.53;7.47;;;6.30;45.40;;;;;;5105461;28;20185;-78
2022/01/25 11:50:40;;;;;;;17.17;7.40;;;6.30;44.40;;;;;;5107311;28;20194;-77
2022/01/25 11:53:11;;;;;;;19.43;7.77;;;6.30;44.50;;;;;;5107089;28;20190;-77
2022/01/25 11:55:41;;;;;;;16.53;7.20;;;6.30;45.00;;;;;;5108289;28;20201;-78
2022/01/25 11:58:13;;;;;;;13.43;6.93;;;6.40;45.00;;;;;;5103760;28;20193;-79
2022/01/25 12:00:47;;;;;;;13.40;6.00;;;6.40;44.40;;;;;;5104698;27;20898;-77
2022/01/25 12:03:24;;;;;;;14.07;7.30;;;6.50;44.40;;;;;;5105267;28;20187;-77
2022/01/25 12:06:02;;;;;;;20.00;8.13;;;6.50;43.90;;;;;;5108437;28;20195;-79
2022/01/25 12:08:39;;;;;;;15.97;7.33;;;6.50;44.00;;;;;;5106627;28;20185;-77
2022/01/25 12:11:29;;;;;;;12.53;6.67;;;6.50;44.10;;;;;;5106420;28;20243;-77
2022/01/25 12:14:22;;;;;;;18.70;6.80;;;6.60;44.50;;;;;;5105451;28;20196;-77
2022/01/25 12:16:53;;;;;;;15.17;7.23;;;6.60;44.20;;;;;;5103887;28;20635;-78
2022/01/25 12:19:35;;;;;;;13.73;6.60;;;6.60;43.80;;;;;;5105112;28;20603;-77
2022/01/25 12:22:11;;;;;;;15.07;7.10;;;6.70;44.10;;;;;;5107055;28;20277;-78
2022/01/25 12:24:53;;;;;;;15.37;7.23;;;6.70;44.20;;;;;;5100588;28;20224;-78
2022/01/25 12:27:34;;;;;;;16.40;7.50;;;6.80;43.90;;;;;;5096553;28;20550;-77
2022/01/25 12:30:08;;;;;;;11.67;6.80;;;6.80;43.30;;;;;;5100219;28;20182;-78
2022/01/25 12:32:48;;;;;;;12.23;6.50;;;6.80;43.70;;;;;;5093598;28;20660;-77
2022/01/25 12:35:17;;;;;;;14.40;7.20;;;6.80;43.60;;;;;;5102408;28;20216;-77
2022/01/25 12:37:58;;;;;;;17.43;7.10;;;6.80;44.00;;;;;;5104226;28;20189;-77
2022/01/25 12:40:55;;;;;;;14.23;7.30;;;6.90;44.20;;;;;;5107691;28;20559;-77
2022/01/25 12:43:26;;;;;;;13.83;6.97;;;6.90;43.30;;;;;;5106220;28;20380;-77
2022/01/25 12:46:00;;;;;;;12.43;6.73;;;7.00;43.60;;;;;;5107160;28;20185;-77
2022/01/25 12:48:31;;;;;;;16.03;6.93;;;6.90;43.10;;;;;;5104675;28;20214;-78
2022/01/25 12:51:03;;;;;;;15.07;6.77;;;7.00;43.90;;;;;;5095981;28;20193;-79
2022/01/25 12:53:35;;;;;;;24.13;7.40;;;7.10;44.50;;;;;;5100501;28;20221;-78
2022/01/25 12:56:06;;;;;;;14.43;7.73;;;7.10;44.40;;;;;;5104047;28;20447;-78
2022/01/25 12:58:35;;;;;;;12.20;6.50;;;7.20;44.10;;;;;;5104596;28;20712;-78
2022/01/25 13:01:08;;;;;;;14.87;7.17;;;7.20;44.10;;;;;;5106538;28;20297;-78
2022/01/25 13:03:42;;;;;;;13.80;7.00;;;7.30;43.20;;;;;;5107497;28;20827;-79
2022/01/25 13:06:15;;;;;;;13.23;6.90;;;7.30;43.10;;;;;;5101910;28;20283;-78
2022/01/25 13:08:46;;;;;;;16.87;6.80;;;7.30;43.00;;;;;;5103018;28;20179;-79
2022/01/25 13:11:26;;;;;;;11.40;6.47;;;7.40;43.50;;;;;;5108132;28;20738;-78
2022/01/25 13:14:19;;;;;;;13.20;6.50;;;7.50;44.10;;;;;;5106064;28;20187;-79
2022/01/25 13:16:52;;;;;;;14.07;7.40;;;7.70;43.50;;;;;;5107463;28;20220;-79
2022/01/25 13:19:23;;;;;;;14.93;7.03;;;7.90;43.90;;;;;;5106615;28;20189;-80
2022/01/25 13:21:54;;;;;;;12.03;6.10;;;8.10;43.10;;;;;;5107684;28;20767;-79
2022/01/25 13:24:47;;;;;;;15.90;7.53;;;8.20;42.70;;;;;;5106409;28;20586;-79
2022/01/25 13:27:19;;;;;;;17.57;7.33;;;8.40;43.10;;;;;;5107085;28;20181;-77
2022/01/25 13:32:40;;;;;;;13.43;6.70;;;9.00;44.50;;;;;;5104500;28;20691;-79
2022/01/25 13:35:26;;;;;;;14.87;7.03;;;9.80;44.10;;;;;;5092569;28;20229;-80
2022/01/25 13:38:09;;;;;;;15.30;7.83;;;10.30;42.30;;;;;;5087509;28;20186;-80
2022/01/25 13:40:49;;;;;;;12.90;7.17;;;10.70;40.00;;;;;;5103372;28;20192;-79
2022/01/25 13:46:16;;;;;;;15.57;7.03;;;13.80;36.80;;;;;;5050736;28;20281;-80
2022/01/25 13:48:46;;;;;;;14.13;6.77;;;16.60;34.60;;;;;;5084114;28;20181;-80
2022/01/25 13:51:17;;;;;;;11.88;7.22;;;18.40;32.00;;;;;;5103496;28;20184;-78
2022/01/25 13:53:51;;;;;;;11.40;6.77;;;19.30;29.90;;;;;;5108530;28;20272;-80
2022/01/25 13:56:22;;;;;;;13.73;7.33;;;19.80;28.30;;;;;;5107932;28;20271;-80
2022/01/25 13:58:52;;;;;;;14.03;6.83;;;20.00;27.20;;;;;;5107183;28;20189;-80
2022/01/25 14:01:23;;;;;;;12.60;6.60;;;20.60;27.10;;;;;;5105918;28;20196;-80
2022/01/25 14:03:57;;;;;;;13.63;7.13;;;20.40;27.30;;;;;;5107056;28;20284;-80
2022/01/25 14:06:28;;;;;;;20.23;8.03;;;19.60;27.60;;;;;;5108887;28;20678;-79
2022/01/25 14:09:04;;;;;;;14.57;8.23;;;18.00;28.50;;;;;;5106585;28;20554;-78
2022/01/25 14:11:53;;;;;;;17.93;8.47;;;16.80;29.20;;;;;;5109014;28;20181;-79
2022/01/25 14:25:36;;;;;;;16.10;9.27;;;16.20;29.10;;;;;;5079025;28;20200;-80
2022/01/25 14:28:06;;;;;;;19.07;9.50;;;16.10;29.20;;;;;;5104581;28;20193;-79
2022/01/25 14:30:37;;;;;;;15.50;9.63;;;16.80;28.40;;;;;;5106229;28;20193;-79
2022/01/25 14:33:11;;;;;;;13.80;8.13;;;16.20;28.40;;;;;;5103051;28;20190;-80